Time;durP1;ratioP1;P1;durP2;ratioP2;P2;SDS_P1;SDS_P2;PMS_P1;PMS_P2;Temp;Humidity;BMP_temperature;BMP_pressure;BME280_temperature;BME280_humidity;BME280_pressure;Samples;Min_cycle;Max_cycle;Signal;HPM_P1;HPM_P2
2023/03/19 00:00:44;;;;;;;2.28;1.45;;;;;;;15.16;54.19;101027.59;4898014;28;114725;-63
2023/03/19 00:03:12;;;;;;;1.83;1.30;;;;;;;15.13;54.26;101027.78;4903946;28;114332;-63
2023/03/19 00:05:39;;;;;;;3.80;1.40;;;;;;;15.09;54.43;101021.78;4899201;28;124794;-63
2023/03/19 00:08:06;;;;;;;2.67;1.42;;;;;;;15.07;54.41;101023.69;4897781;28;125179;-63
2023/03/19 00:10:38;;;;;;;1.95;1.33;;;;;;;15.05;54.63;101030.03;4904385;28;113279;-64
2023/03/19 00:13:05;;;;;;;2.28;1.48;;;;;;;15.03;54.78;101024.84;4902150;28;114413;-63
2023/03/19 00:15:33;;;;;;;2.42;1.42;;;;;;;15.03;54.81;101031.94;4904459;28;124045;-64
2023/03/19 00:18:01;;;;;;;2.83;1.63;;;;;;;15.01;54.81;101028.53;4909400;28;124664;-64
2023/03/19 00:20:28;;;;;;;2.28;1.30;;;;;;;14.96;55.02;101020.81;4901623;28;115201;-64
2023/03/19 00:22:55;;;;;;;2.92;1.30;;;;;;;14.94;55.04;101034.25;4900316;28;112983;-63
2023/03/19 00:25:22;;;;;;;1.77;1.20;;;;;;;14.93;55.11;101021.84;4906521;28;124048;-63
2023/03/19 00:27:51;;;;;;;2.90;1.33;;;;;;;14.90;55.16;101027.38;4904523;28;124472;-64
2023/03/19 00:30:19;;;;;;;2.78;1.40;;;;;;;14.88;55.32;101018.63;4899845;28;114522;-64
2023/03/19 00:32:47;;;;;;;2.45;1.50;;;;;;;14.86;55.45;101015.19;4902782;28;114681;-64
2023/03/19 00:35:15;;;;;;;2.63;1.40;;;;;;;14.84;55.49;101017.06;4913339;28;124535;-63
2023/03/19 00:37:42;;;;;;;2.33;1.65;;;;;;;14.83;55.63;101015.34;4896984;28;123969;-64
2023/03/19 00:40:10;;;;;;;1.98;1.33;;;;;;;14.82;55.66;101018.97;4902656;28;115405;-67
2023/03/19 00:42:38;;;;;;;2.28;1.45;;;;;;;14.81;55.64;101017.25;4900524;28;114874;-65
2023/03/19 00:45:06;;;;;;;4.60;1.88;;;;;;;14.80;55.79;101020.88;4905959;28;124207;-65
2023/03/19 00:47:34;;;;;;;3.65;1.80;;;;;;;14.79;55.71;101019.16;4900501;28;124185;-65
2023/03/19 00:50:03;;;;;;;2.85;1.98;;;;;;;14.77;55.85;101026.41;4906307;28;114207;-65
2023/03/19 00:52:30;;;;;;;3.38;2.17;;;;;;;14.72;55.86;101024.00;4908117;28;113105;-65
2023/03/19 00:54:58;;;;;;;4.60;2.08;;;;;;;14.70;55.86;101020.56;4902069;28;123802;-65
2023/03/19 00:57:25;;;;;;;2.53;1.92;;;;;;;14.69;56.09;101031.31;4907256;28;123902;-64
2023/03/19 00:59:53;;;;;;;5.40;2.00;;;;;;;14.66;56.21;101028.84;4904003;28;113437;-65
2023/03/19 01:02:20;;;;;;;3.55;2.30;;;;;;;14.64;56.18;101026.25;4901004;28;114079;-65
2023/03/19 01:04:48;;;;;;;2.72;2.20;;;;;;;14.63;56.28;101034.34;4898488;28;124922;-65
2023/03/19 01:07:15;;;;;;;4.43;2.30;;;;;;;14.62;56.09;101037.94;4897607;28;124605;-64
2023/03/19 01:09:43;;;;;;;5.40;2.80;;;;;;;14.62;56.48;101037.94;4908376;28;114339;-65
2023/03/19 01:12:10;;;;;;;4.22;2.28;;;;;;;14.60;56.58;101036.25;4918557;28;113948;-65
2023/03/19 01:14:37;;;;;;;3.63;2.42;;;;;;;14.58;56.60;101031.97;4901045;28;124628;-64
2023/03/19 01:17:05;;;;;;;4.43;2.40;;;;;;;14.57;56.84;101031.09;4908144;28;123591;-63
2023/03/19 01:19:33;;;;;;;4.15;2.80;;;;;;;14.57;56.69;101036.41;4901039;28;113467;-63
2023/03/19 01:22:01;;;;;;;4.47;2.78;;;;;;;14.57;56.85;101031.09;4900896;28;113112;-63
2023/03/19 01:24:30;;;;;;;4.07;2.80;;;;;;;14.57;56.91;101025.75;4901227;28;123329;-64
2023/03/19 01:26:58;;;;;;;5.18;3.00;;;;;;;14.57;56.98;101020.41;4902677;28;122792;-65
2023/03/19 01:29:33;;;;;;;4.75;2.70;;;;;;;14.56;56.79;101024.03;4898585;28;114429;-64
2023/03/19 01:32:09;;;;;;;3.42;2.50;;;;;;;14.56;56.84;101013.38;4900291;28;117202;-64
2023/03/19 01:34:53;;;;;;;3.90;2.53;;;;;;;14.55;56.86;101021.44;4900790;28;124368;-64
2023/03/19 01:37:20;;;;;;;4.03;2.80;;;;;;;14.54;56.98;101020.59;4898308;28;124435;-64
2023/03/19 01:39:48;;;;;;;4.25;2.90;;;;;;;14.54;56.88;101025.91;4902015;28;113806;-64
2023/03/19 01:42:15;;;;;;;4.18;2.83;;;;;;;14.55;57.09;101021.44;4913218;28;113222;-64
2023/03/19 01:45:32;;;;;;;6.18;3.28;;;;;;;14.51;56.99;101018.09;4896603;28;124382;-64
2023/03/19 01:48:30;;;;;;;6.00;2.65;;;;;;;14.47;56.91;101013.91;4906267;28;124350;-64
2023/03/19 01:51:04;;;;;;;4.15;3.00;;;;;;;14.46;56.83;101017.50;4906451;28;113435;-64
2023/03/19 01:53:57;;;;;;;5.18;3.00;;;;;;;14.45;57.05;101005.13;4897497;28;115202;-64
2023/03/19 01:56:47;;;;;;;4.22;2.85;;;;;;;14.42;57.02;101005.31;4903489;28;123551;-64
2023/03/19 01:59:53;;;;;;;4.82;3.50;;;;;;;14.38;56.91;101015.28;4902604;28;124307;-65
2023/03/19 02:02:40;;;;;;;5.90;3.35;;;;;;;14.36;57.04;101017.19;4906540;28;114667;-65
2023/03/19 02:05:24;;;;;;;5.68;3.15;;;;;;;14.34;57.09;101018.22;4903310;28;113465;-65
2023/03/19 02:08:00;;;;;;;5.60;3.30;;;;;;;14.32;57.34;101014.78;4910298;28;123766;-66
2023/03/19 02:10:29;;;;;;;5.20;3.15;;;;;;;14.30;57.45;101014.88;4907864;28;124356;-65
2023/03/19 02:12:56;;;;;;;5.78;3.60;;;;;;;14.30;57.40;101016.69;4912342;28;111706;-65
2023/03/19 02:15:24;;;;;;;7.00;3.40;;;;;;;14.29;57.55;101020.28;4903279;28;114036;-65
2023/03/19 02:17:51;;;;;;;5.30;3.45;;;;;;;14.30;57.59;101022.03;4910429;28;123710;-65
2023/03/19 02:20:30;;;;;;;5.90;3.50;;;;;;;14.31;57.70;101018.41;4909297;28;122895;-64
2023/03/19 02:23:20;;;;;;;5.57;3.42;;;;;;;14.31;57.77;101013.06;4912963;28;114461;-65
2023/03/19 02:26:00;;;;;;;5.63;3.60;;;;;;;14.31;57.64;101019.25;4910802;28;114540;-64
2023/03/19 02:28:29;;;;;;;5.90;3.72;;;;;;;14.33;57.58;101016.50;4919244;28;122937;-65
2023/03/19 02:30:56;;;;;;;5.10;3.50;;;;;;;14.34;57.53;101018.22;4909723;28;123686;-65
2023/03/19 02:33:23;;;;;;;5.40;3.63;;;;;;;14.33;57.66;101016.50;4905005;28;113608;-64
2023/03/19 02:35:53;;;;;;;5.43;3.72;;;;;;;14.33;57.44;101016.50;4911501;28;114230;-64
2023/03/19 02:38:23;;;;;;;5.88;3.78;;;;;;;14.33;57.78;101016.50;4912302;28;122879;-64
2023/03/19 02:40:57;;;;;;;5.55;3.50;;;;;;;14.34;57.86;101018.22;4903159;28;123074;-64
2023/03/19 02:43:25;;;;;;;5.50;3.60;;;;;;;14.34;57.71;101015.56;4904804;28;114291;-64
2023/03/19 02:45:53;;;;;;;4.97;3.72;;;;;;;14.35;57.81;101014.59;4902947;28;113799;-64
2023/03/19 02:48:22;;;;;;;5.57;3.97;;;;;;;14.34;57.80;101013.75;4901890;28;123954;-64
2023/03/19 02:50:49;;;;;;;7.13;3.72;;;;;;;14.35;57.87;101009.28;4898057;28;123912;-63
2023/03/19 02:53:17;;;;;;;5.78;3.67;;;;;;;14.36;58.01;101016.34;4907801;28;115011;-64
2023/03/19 02:55:44;;;;;;;6.13;4.15;;;;;;;14.36;58.13;101016.34;4899900;28;114336;-64
2023/03/19 02:58:12;;;;;;;5.55;3.90;;;;;;;14.36;58.00;101022.50;4903804;28;124020;-64
2023/03/19 03:00:40;;;;;;;6.07;3.75;;;;;;;14.37;58.04;101028.69;4916294;28;123092;-64
2023/03/19 03:03:08;;;;;;;5.72;4.13;;;;;;;14.36;58.06;101032.31;4904190;28;113868;-64
2023/03/19 03:05:35;;;;;;;5.80;4.00;;;;;;;14.37;58.13;101034.03;4906166;28;114038;-64
2023/03/19 03:08:03;;;;;;;5.25;3.63;;;;;;;14.36;57.99;101027.00;4903222;28;124042;-64
2023/03/19 03:10:32;;;;;;;5.55;3.65;;;;;;;14.35;58.12;101026.13;4900651;28;124819;-63
2023/03/19 03:13:00;;;;;;;7.28;4.07;;;;;;;14.35;58.29;101025.25;4898211;28;115315;-64
2023/03/19 03:15:28;;;;;;;6.57;4.03;;;;;;;14.36;58.17;101032.31;4901846;28;115412;-63
2023/03/19 03:17:56;;;;;;;5.45;4.07;;;;;;;14.37;58.21;101029.56;4907180;28;124710;-64
2023/03/19 03:20:23;;;;;;;5.20;3.97;;;;;;;14.38;58.34;101030.41;4900433;28;124108;-64
2023/03/19 03:22:52;;;;;;;8.45;4.38;;;;;;;14.39;58.22;101042.78;4908390;28;114211;-64
2023/03/19 03:25:20;;;;;;;4.55;3.80;;;;;;;14.39;58.46;101042.78;4900453;28;114157;-63
2023/03/19 03:27:47;;;;;;;7.10;4.30;;;;;;;14.40;58.38;101044.50;4897925;28;124488;-63
2023/03/19 03:30:15;;;;;;;5.65;4.05;;;;;;;14.41;58.29;101048.91;4898973;28;123953;-65
2023/03/19 03:32:42;;;;;;;5.50;3.85;;;;;;;14.41;58.32;101047.09;4903459;28;114288;-66
2023/03/19 03:35:10;;;;;;;5.57;4.00;;;;;;;14.42;58.46;101047.94;4901669;28;114230;-65
2023/03/19 03:37:38;;;;;;;5.82;3.88;;;;;;;14.44;58.39;101043.38;4907782;28;124680;-65
2023/03/19 03:40:07;;;;;;;6.93;4.15;;;;;;;14.44;58.46;101039.88;4911745;28;123922;-65
2023/03/19 03:42:36;;;;;;;8.02;4.05;;;;;;;14.44;58.37;101040.72;4898203;28;113520;-64
2023/03/19 03:45:06;;;;;;;6.88;4.10;;;;;;;14.45;58.58;101047.78;4918184;28;113097;-64
2023/03/19 03:47:33;;;;;;;6.85;4.32;;;;;;;14.43;58.38;101049.69;4910615;28;123283;-65
2023/03/19 03:50:00;;;;;;;5.28;3.80;;;;;;;14.43;58.42;101044.34;4909933;28;123210;-65
2023/03/19 03:52:30;;;;;;;5.55;3.95;;;;;;;14.45;58.49;101042.44;4899715;28;113333;-65
2023/03/19 03:54:57;;;;;;;5.20;4.10;;;;;;;14.46;58.40;101043.28;4921654;28;113460;-65
2023/03/19 03:57:26;;;;;;;6.18;4.28;;;;;;;14.45;58.62;101042.44;4900172;28;124860;-64
2023/03/19 03:59:55;;;;;;;5.20;3.72;;;;;;;14.46;58.50;101038.81;4901174;28;123223;-64
2023/03/19 04:02:23;;;;;;;6.60;4.15;;;;;;;14.46;58.48;101044.16;4907292;28;114277;-64
2023/03/19 04:04:51;;;;;;;7.55;4.07;;;;;;;14.45;58.67;101053.09;4898345;28;115559;-65
2023/03/19 04:07:19;;;;;;;5.90;4.10;;;;;;;14.46;58.84;101057.47;4901625;28;123572;-65
2023/03/19 04:09:52;;;;;;;4.63;3.72;;;;;;;14.47;58.60;101056.53;4907200;28;122866;-64
2023/03/19 04:12:20;;;;;;;6.05;3.95;;;;;;;14.46;58.51;101052.13;4899114;28;114564;-65
2023/03/19 04:14:48;;;;;;;6.13;4.00;;;;;;;14.47;58.62;101056.53;4909908;28;113184;-65
2023/03/19 04:17:15;;;;;;;4.85;3.67;;;;;;;14.46;58.65;101054.81;4907149;28;123067;-65
2023/03/19 04:19:43;;;;;;;5.50;4.00;;;;;;;14.47;58.67;101053.88;4892387;28;123081;-65
2023/03/19 04:22:10;;;;;;;6.10;3.88;;;;;;;14.47;58.64;101056.53;4900476;28;114984;-65
2023/03/19 04:24:37;;;;;;;6.55;3.85;;;;;;;14.45;58.61;101058.44;4908164;28;113215;-65
2023/03/19 04:27:06;;;;;;;6.07;3.88;;;;;;;14.44;58.60;101058.53;4903507;28;123957;-65
2023/03/19 04:29:34;;;;;;;5.82;4.03;;;;;;;14.43;58.70;101060.34;4909452;28;123190;-65
2023/03/19 04:32:03;;;;;;;6.20;3.92;;;;;;;14.41;58.59;101051.56;4900259;28;114075;-65
2023/03/19 04:34:30;;;;;;;6.05;4.28;;;;;;;14.39;58.64;101064.09;4898849;28;114097;-65
2023/03/19 04:36:57;;;;;;;6.53;4.05;;;;;;;14.36;58.39;101058.97;4905102;28;124644;-65
2023/03/19 04:39:26;;;;;;;6.65;4.20;;;;;;;14.32;58.65;101068.09;4919586;28;97039;-65
2023/03/19 04:41:54;;;;;;;5.43;3.90;;;;;;;14.30;58.47;101069.97;4899141;28;113148;-64
2023/03/19 04:44:44;;;;;;;6.75;4.13;;;;;;;14.25;58.45;101072.88;4882887;28;114576;-65
2023/03/19 04:47:12;;;;;;;5.55;4.32;;;;;;;14.20;58.49;101075.84;4901625;28;123656;-65
2023/03/19 04:49:48;;;;;;;8.38;4.35;;;;;;;14.16;58.47;101074.25;4905742;28;126439;-65
2023/03/19 04:52:18;;;;;;;7.43;4.35;;;;;;;14.13;58.62;101069.13;4905151;28;114315;-65
2023/03/19 04:54:45;;;;;;;6.40;4.45;;;;;;;14.11;58.57;101076.34;4902737;28;114197;-65
2023/03/19 04:57:13;;;;;;;7.07;4.43;;;;;;;14.07;58.58;101068.59;4914141;28;123995;-65
2023/03/19 04:59:41;;;;;;;7.90;4.57;;;;;;;14.03;58.72;101075.91;4904034;28;123564;-65
2023/03/19 05:02:11;;;;;;;6.10;4.40;;;;;;;13.99;58.74;101075.22;4907048;28;113529;-65
2023/03/19 05:04:40;;;;;;;7.13;4.53;;;;;;;13.95;58.76;101079.00;4898934;28;113692;-65
2023/03/19 05:07:11;;;;;;;6.18;4.47;;;;;;;13.92;58.58;101076.50;4904974;28;123789;-65
2023/03/19 05:09:42;;;;;;;6.35;4.32;;;;;;;13.90;58.57;101077.53;4899948;28;123036;-65
2023/03/19 05:12:11;;;;;;;5.68;4.55;;;;;;;13.86;58.68;101086.63;4907061;28;113929;-65
2023/03/19 05:14:50;;;;;;;6.75;4.68;;;;;;;13.82;58.67;101081.50;4899751;28;113399;-66
2023/03/19 05:17:20;;;;;;;6.90;4.47;;;;;;;13.78;58.60;101084.38;4904261;28;123498;-65
2023/03/19 05:20:08;;;;;;;5.70;4.50;;;;;;;13.72;58.67;101090.91;4900842;28;124382;-65
2023/03/19 05:22:36;;;;;;;6.63;4.65;;;;;;;13.66;58.76;101088.59;4902526;28;114126;-64
2023/03/19 05:25:05;;;;;;;6.20;4.90;;;;;;;13.63;58.72;101104.72;4903329;28;114195;-65
2023/03/19 05:27:33;;;;;;;6.95;4.82;;;;;;;13.59;58.83;101100.50;4900478;28;123260;-65
2023/03/19 05:30:10;;;;;;;8.48;5.00;;;;;;;13.53;58.89;101096.38;4900376;28;126066;-65
2023/03/19 05:32:57;;;;;;;8.02;5.28;;;;;;;13.50;59.07;101095.66;4906697;28;115278;-65
2023/03/19 05:35:31;;;;;;;7.80;5.25;;;;;;;13.47;59.00;101095.81;4905163;28;114028;-65
2023/03/19 05:38:00;;;;;;;7.68;5.15;;;;;;;13.43;59.05;101101.31;4901927;28;123218;-65
2023/03/19 05:40:28;;;;;;;7.00;4.97;;;;;;;13.41;59.12;101102.31;4904968;28;123302;-65
2023/03/19 05:42:58;;;;;;;9.15;5.45;;;;;;;13.38;59.15;101108.69;4906383;28;114300;-64
2023/03/19 05:45:27;;;;;;;8.27;5.68;;;;;;;13.36;59.09;101110.56;4902508;28;114829;-64
2023/03/19 05:47:59;;;;;;;8.10;5.60;;;;;;;13.34;59.21;101112.44;4911724;28;123826;-64
2023/03/19 05:50:26;;;;;;;8.13;5.63;;;;;;;13.31;59.31;101115.25;4911843;28;123638;-64
2023/03/19 05:53:26;;;;;;;9.30;5.57;;;;;;;13.29;59.31;101119.75;4899828;28;115092;-65
2023/03/19 05:56:26;;;;;;;8.05;5.80;;;;;;;13.27;59.21;101121.66;4919458;28;114228;-64
2023/03/19 05:59:07;;;;;;;8.50;5.72;;;;;;;13.25;59.27;101123.53;4911031;28;123159;-64
2023/03/19 06:01:38;;;;;;;8.27;5.50;;;;;;;13.24;59.23;101132.44;4904606;28;123091;-63
2023/03/19 06:04:06;;;;;;;8.35;5.68;;;;;;;13.22;59.48;101129.00;4903397;28;114310;-64
2023/03/19 06:06:33;;;;;;;8.13;5.93;;;;;;;13.20;59.56;101130.88;4902279;28;114209;-64
2023/03/19 06:09:02;;;;;;;10.10;6.18;;;;;;;13.20;59.39;101136.19;4904266;28;123218;-64
2023/03/19 06:11:34;;;;;;;10.30;6.10;;;;;;;13.18;59.48;101138.06;4904673;28;122878;-64
2023/03/19 06:14:22;;;;;;;9.77;5.90;;;;;;;13.17;59.56;101147.00;4903961;28;115855;-64
2023/03/19 06:17:08;;;;;;;8.98;5.47;;;;;;;13.15;59.47;101148.88;4922523;28;112977;-64
2023/03/19 06:19:36;;;;;;;10.60;6.22;;;;;;;13.14;59.57;101147.16;4907838;28;123600;-65
2023/03/19 06:22:03;;;;;;;9.65;5.93;;;;;;;13.13;59.63;101146.31;4909603;28;123141;-64
2023/03/19 06:24:40;;;;;;;8.48;6.18;;;;;;;13.11;59.70;101152.63;4908135;28;113366;-63
2023/03/19 06:27:08;;;;;;;7.85;5.68;;;;;;;13.11;59.71;101152.63;4907013;28;113131;-63
2023/03/19 06:29:37;;;;;;;8.98;5.47;;;;;;;13.09;59.80;101154.50;4897867;28;123135;-63
2023/03/19 06:32:16;;;;;;;8.00;5.88;;;;;;;13.10;59.90;101161.56;4910566;28;122788;-64
2023/03/19 06:34:44;;;;;;;11.57;6.53;;;;;;;13.10;59.95;101156.22;4900380;28;114357;-65
2023/03/19 06:37:11;;;;;;;6.85;3.88;;;;;;;13.11;59.89;101163.25;4911422;28;114195;-64
2023/03/19 06:39:39;;;;;;;8.52;4.20;;;;;;;13.12;59.98;101159.66;4902927;28;124664;-65
2023/03/19 06:42:06;;;;;;;8.10;4.82;;;;;;;13.14;59.79;101163.09;4900707;28;124286;-64
2023/03/19 06:44:34;;;;;;;8.10;5.18;;;;;;;13.16;59.79;101166.53;4903631;28;114457;-64
2023/03/19 06:47:01;;;;;;;7.18;4.90;;;;;;;13.18;59.81;101162.00;4903908;28;113946;-65
2023/03/19 06:49:28;;;;;;;7.35;4.95;;;;;;;13.23;59.95;101167.97;4911571;28;123394;-65
2023/03/19 06:51:56;;;;;;;8.65;5.05;;;;;;;13.28;60.10;101176.56;4900356;28;124143;-64
2023/03/19 06:54:23;;;;;;;9.13;5.55;;;;;;;13.35;60.21;101172.66;4903420;28;114621;-62
2023/03/19 06:56:50;;;;;;;8.77;5.63;;;;;;;13.43;60.13;101174.97;4907269;28;113958;-63
2023/03/19 06:59:17;;;;;;;9.45;5.25;;;;;;;13.47;60.14;101180.97;4896249;28;124155;-63
2023/03/19 07:01:45;;;;;;;8.48;5.28;;;;;;;13.50;60.28;101181.66;4905469;28;123765;-63
2023/03/19 07:04:12;;;;;;;9.93;5.85;;;;;;;13.53;60.07;101191.31;4898828;28;114411;-63
2023/03/19 07:06:40;;;;;;;8.13;5.32;;;;;;;13.56;60.20;101185.81;4911601;28;114596;-63
2023/03/19 07:09:07;;;;;;;8.80;5.80;;;;;;;13.57;60.09;101192.88;4909848;28;124020;-63
2023/03/19 07:11:36;;;;;;;9.32;5.63;;;;;;;13.59;60.24;101190.97;4903406;28;123803;-63
2023/03/19 07:14:03;;;;;;;9.02;6.00;;;;;;;13.61;60.11;101194.41;4903545;28;114151;-63
2023/03/19 07:16:31;;;;;;;7.95;5.55;;;;;;;13.63;59.97;101192.53;4904069;28;114174;-62
2023/03/19 07:18:58;;;;;;;9.13;6.10;;;;;;;13.66;60.07;101197.72;4902202;28;124021;-62
2023/03/19 07:21:25;;;;;;;9.57;6.18;;;;;;;13.70;60.08;101199.28;4905901;28;123823;-63
2023/03/19 07:23:52;;;;;;;9.73;6.32;;;;;;;13.75;60.14;101201.69;4910529;28;115041;-63
2023/03/19 07:26:19;;;;;;;11.48;6.47;;;;;;;13.80;60.18;101216.47;4906574;28;114660;-63
2023/03/19 07:28:47;;;;;;;10.38;6.00;;;;;;;13.82;60.17;101201.31;4897262;28;124474;-63
2023/03/19 07:31:15;;;;;;;10.07;6.15;;;;;;;13.89;60.27;101219.59;4898049;28;124400;-63
2023/03/19 07:33:43;;;;;;;9.27;5.90;;;;;;;13.91;60.04;101207.06;4906691;28;114072;-63
2023/03/19 07:36:10;;;;;;;9.07;6.18;;;;;;;13.94;60.12;101212.25;4911348;28;112929;-63
2023/03/19 07:38:37;;;;;;;10.82;6.75;;;;;;;14.00;60.38;101206.56;4908979;28;124420;-63
2023/03/19 07:41:04;;;;;;;10.48;6.85;;;;;;;14.09;60.35;101219.41;4903031;28;124069;-62
2023/03/19 07:43:32;;;;;;;11.15;6.40;;;;;;;14.20;60.55;101217.03;4908096;28;114402;-63
2023/03/19 07:45:59;;;;;;;9.73;7.25;;;;;;;14.31;60.49;101215.56;4899219;28;114011;-63
2023/03/19 07:48:27;;;;;;;10.73;7.65;;;;;;;14.40;60.48;101221.25;4895890;28;124003;-63
2023/03/19 07:50:54;;;;;;;13.23;7.68;;;;;;;14.51;60.71;101218.00;4905866;28;124410;-63
2023/03/19 07:53:21;;;;;;;13.68;8.90;;;;;;;14.63;60.56;101220.94;4906710;28;114290;-62
2023/03/19 07:55:49;;;;;;;12.57;8.52;;;;;;;14.75;60.54;101214.94;4907434;28;114543;-63
2023/03/19 07:58:17;;;;;;;14.45;8.65;;;;;;;14.82;60.42;101218.94;4904347;28;123822;-63
2023/03/19 08:00:44;;;;;;;13.65;8.32;;;;;;;14.92;60.43;101217.50;4890615;28;124256;-63
2023/03/19 08:03:11;;;;;;;13.32;8.68;;;;;;;15.04;60.53;101220.41;4903300;28;114765;-62
2023/03/19 08:05:40;;;;;;;13.63;8.20;;;;;;;15.15;60.29;101217.97;4894196;28;114355;-62
2023/03/19 08:08:07;;;;;;;12.55;8.63;;;;;;;15.23;60.26;101215.72;4902026;28;124126;-62
2023/03/19 08:10:35;;;;;;;11.70;8.38;;;;;;;15.32;60.07;101219.66;4904848;28;124331;-62
2023/03/19 08:13:04;;;;;;;12.82;8.50;;;;;;;15.41;60.13;101218.22;4917304;28;114267;-63
2023/03/19 08:15:32;;;;;;;11.98;8.25;;;;;;;15.50;59.85;101223.03;4904652;28;115347;-63
2023/03/19 08:18:02;;;;;;;12.02;7.70;;;;;;;15.57;59.91;101229.72;4892448;28;123978;-63
2023/03/19 08:20:29;;;;;;;10.50;7.03;;;;;;;15.67;59.71;101230.91;4910180;28;123822;-63
2023/03/19 08:22:57;;;;;;;10.10;5.85;;;;;;;15.75;59.58;101234.00;4912327;28;114507;-63
2023/03/19 08:25:31;;;;;;;11.43;6.20;;;;;;;15.83;59.39;101240.69;4910938;28;113959;-63
2023/03/19 08:27:59;;;;;;;14.00;5.38;;;;;;;15.93;59.16;101236.50;4910325;28;124170;-63
2023/03/19 08:30:27;;;;;;;7.78;5.57;;;;;;;16.00;58.94;101237.00;4910776;28;124001;-62
2023/03/19 08:32:54;;;;;;;11.00;5.97;;;;;;;16.04;58.51;101239.38;4897131;28;114338;-63
2023/03/19 08:35:25;;;;;;;11.15;6.03;;;;;;;16.07;58.41;101249.88;4893840;28;112984;-62
2023/03/19 08:37:53;;;;;;;10.98;4.93;;;;;;;16.11;58.03;101246.06;4891139;28;123892;-62
2023/03/19 08:40:21;;;;;;;12.32;5.40;;;;;;;16.13;58.05;101238.78;4893616;28;123966;-63
2023/03/19 08:42:49;;;;;;;11.13;5.00;;;;;;;16.15;57.77;101242.22;4906670;28;114472;-63
2023/03/19 08:45:16;;;;;;;13.35;5.53;;;;;;;16.19;57.63;101242.06;4891987;28;114464;-63
2023/03/19 08:47:44;;;;;;;8.30;3.55;;;;;;;16.24;57.64;101250.66;4910065;28;123144;-62
2023/03/19 08:50:12;;;;;;;8.20;3.60;;;;;;;16.31;57.65;101257.31;4910662;28;123140;-62
2023/03/19 08:52:42;;;;;;;7.05;3.63;;;;;;;16.36;57.40;101255.22;4911215;28;114334;-62
2023/03/19 08:55:09;;;;;;;11.13;3.92;;;;;;;16.38;57.29;101258.66;4913921;28;113978;-63
2023/03/19 08:57:36;;;;;;;8.38;3.75;;;;;;;16.38;57.11;101269.34;4906426;28;123319;-62
2023/03/19 09:00:05;;;;;;;11.43;3.88;;;;;;;16.40;57.02;101264.75;4904747;28;124848;-62
2023/03/19 09:02:32;;;;;;;11.57;4.43;;;;;;;16.44;57.11;101270.75;4910501;28;115556;-62
2023/03/19 09:04:59;;;;;;;9.85;4.32;;;;;;;16.52;57.11;101272.00;4908359;28;115865;-63
2023/03/19 09:08:17;;;;;;;10.77;3.63;;;;;;;16.64;57.39;101269.50;4913443;28;124082;-63
2023/03/19 09:10:44;;;;;;;10.80;4.15;;;;;;;16.77;57.11;101265.09;4912304;28;124093;-63
2023/03/19 09:13:18;;;;;;;7.03;3.38;;;;;;;16.86;56.93;101275.25;4916282;28;114884;-62
2023/03/19 09:15:45;;;;;;;9.95;3.65;;;;;;;16.96;57.00;101271.97;4916608;28;114010;-62
2023/03/19 09:18:12;;;;;;;10.30;3.80;;;;;;;17.02;56.51;101284.94;4913713;28;124027;-62
2023/03/19 09:20:40;;;;;;;7.90;3.80;;;;;;;17.03;56.45;101282.16;4913571;28;124354;-62
2023/03/19 09:23:08;;;;;;;9.38;3.80;;;;;;;17.04;56.12;101283.03;4913839;28;114637;-62
2023/03/19 09:25:35;;;;;;;7.50;4.10;;;;;;;17.08;55.96;101285.41;4913859;28;114294;-62
2023/03/19 09:28:05;;;;;;;8.32;3.72;;;;;;;17.11;55.98;101279.00;4912888;28;124588;-62
2023/03/19 09:30:32;;;;;;;7.30;3.75;;;;;;;17.15;55.83;101285.84;4913079;28;124238;-63
2023/03/19 09:32:59;;;;;;;9.30;4.05;;;;;;;17.19;55.83;101287.38;4914769;28;114134;-63
2023/03/19 09:35:30;;;;;;;7.68;3.80;;;;;;;17.24;55.76;101290.59;4914918;28;114553;-62
2023/03/19 09:37:58;;;;;;;10.23;3.80;;;;;;;17.29;55.63;101283.13;4914563;28;123842;-62
2023/03/19 09:40:32;;;;;;;8.32;3.80;;;;;;;17.35;55.34;101297.94;4904740;28;124505;-62
2023/03/19 09:43:23;;;;;;;8.85;3.92;;;;;;;17.42;55.39;101298.38;4913812;28;113536;-63
2023/03/19 09:45:50;;;;;;;7.70;4.10;;;;;;;17.49;55.24;101299.69;4903251;28;113895;-63
2023/03/19 09:48:32;;;;;;;7.60;3.72;;;;;;;17.55;55.21;101309.97;4899576;28;123921;-62
2023/03/19 09:51:04;;;;;;;10.05;3.80;;;;;;;17.67;55.24;101309.16;4913529;28;122835;-63
2023/03/19 09:53:52;;;;;;;8.43;3.85;;;;;;;17.78;55.11;101315.59;4906692;28;115365;-62
2023/03/19 09:56:19;;;;;;;9.02;3.60;;;;;;;17.81;54.82;101312.72;4899604;28;115669;-63
2023/03/19 09:58:47;;;;;;;9.77;3.38;;;;;;;17.77;54.30;101316.59;4910481;28;124125;-62
2023/03/19 10:01:23;;;;;;;7.20;3.05;;;;;;;17.71;54.11;101316.03;4914294;28;124359;-62
2023/03/19 10:04:03;;;;;;;11.10;3.50;;;;;;;17.70;54.41;101319.66;4902565;28;116466;-63
2023/03/19 10:06:35;;;;;;;9.27;3.78;;;;;;;17.76;54.46;101322.88;4902426;28;114266;-62
2023/03/19 10:09:30;;;;;;;11.43;4.40;;;;;;;17.84;54.57;101323.25;4893746;28;123980;-62
2023/03/19 10:12:16;;;;;;;12.07;3.90;;;;;;;17.91;54.77;101324.56;4894397;28;123671;-63
2023/03/19 10:15:00;;;;;;;6.88;3.70;;;;;;;17.98;54.33;101315.13;4908816;28;114870;-63
2023/03/19 10:17:32;;;;;;;10.20;3.88;;;;;;;18.06;54.21;101314.59;4893259;28;114030;-63
2023/03/19 10:20:06;;;;;;;10.18;4.13;;;;;;;18.12;54.06;101324.03;4894817;28;123931;-62
2023/03/19 10:22:59;;;;;;;8.40;4.13;;;;;;;18.19;53.98;101325.34;4913136;28;123035;-64
2023/03/19 10:25:28;;;;;;;8.32;3.83;;;;;;;18.24;53.83;101328.56;4912615;28;114311;-64
2023/03/19 10:28:13;;;;;;;9.73;3.58;;;;;;;18.30;53.66;101333.50;4900285;28;114057;-65
2023/03/19 10:30:44;;;;;;;8.05;3.90;;;;;;;18.34;53.54;101329.63;4911052;28;124343;-65
2023/03/19 10:33:27;;;;;;;10.57;3.80;;;;;;;18.41;53.34;101330.06;4913435;28;124197;-64
2023/03/19 10:36:00;;;;;;;9.02;3.47;;;;;;;18.44;53.02;101325.34;4913093;28;114303;-64
2023/03/19 10:38:29;;;;;;;13.38;4.38;;;;;;;18.46;53.16;101331.47;4911189;28;113770;-64
2023/03/19 10:40:59;;;;;;;13.73;5.63;;;;;;;18.51;53.07;101335.63;4913643;28;124370;-65
2023/03/19 10:43:29;;;;;;;12.82;5.68;;;;;;;18.53;52.90;101328.34;4913776;28;124383;-64
2023/03/19 10:45:57;;;;;;;8.95;4.80;;;;;;;18.57;52.53;101329.81;4912357;28;115988;-64
2023/03/19 10:48:26;;;;;;;11.25;4.80;;;;;;;18.60;52.24;101332.31;4911583;28;114907;-65
2023/03/19 10:51:04;;;;;;;8.13;4.75;;;;;;;18.62;52.42;101327.69;4913010;28;123906;-65
2023/03/19 10:53:36;;;;;;;10.55;5.30;;;;;;;18.71;52.38;101329.72;4909722;28;123222;-65
2023/03/19 10:56:06;;;;;;;8.65;4.40;;;;;;;18.82;52.31;101335.19;4913013;28;113854;-64
2023/03/19 10:58:35;;;;;;;12.00;5.38;;;;;;;18.93;52.01;101341.59;4911857;28;113569;-65
2023/03/19 11:01:08;;;;;;;13.05;4.53;;;;;;;18.99;51.73;101336.66;4910854;28;124117;-64
2023/03/19 11:03:38;;;;;;;11.32;4.75;;;;;;;19.05;51.68;101338.88;4913087;28;123905;-65
2023/03/19 11:06:16;;;;;;;8.63;4.20;;;;;;;19.12;51.39;101330.38;4911779;28;113996;-65
2023/03/19 11:08:56;;;;;;;8.65;3.78;;;;;;;19.21;51.30;101332.38;4910860;28;114029;-65
2023/03/19 11:11:43;;;;;;;7.90;4.05;;;;;;;19.36;51.19;101343.84;4908507;28;123184;-64
2023/03/19 11:14:21;;;;;;;12.32;4.68;;;;;;;19.46;50.61;101344.88;4900466;28;124642;-64
2023/03/19 11:16:56;;;;;;;10.90;4.43;;;;;;;19.52;50.63;101354.31;4910808;28;114797;-65
2023/03/19 11:19:28;;;;;;;8.65;4.20;;;;;;;19.60;50.31;101347.38;4911034;28;114568;-64
2023/03/19 11:22:04;;;;;;;8.70;4.28;;;;;;;19.67;50.35;101342.41;4912502;28;124021;-65
2023/03/19 11:24:41;;;;;;;7.95;4.05;;;;;;;19.76;50.23;101336.38;4913211;28;124390;-65
2023/03/19 11:27:13;;;;;;;11.88;4.05;;;;;;;19.84;49.74;101339.31;4910970;28;114673;-66
2023/03/19 11:29:42;;;;;;;8.75;3.67;;;;;;;19.89;49.78;101344.34;4912427;28;114303;-64
2023/03/19 11:32:18;;;;;;;9.05;3.38;;;;;;;19.99;49.73;101353.41;4910735;28;124810;-65